sensor_id;sensor_type;location;lat;lon;timestamp;pressure;altitude;pressure_sealevel;temperature;humidity
75740;BME280;64357;51.344;6.550;2023-07-22T00:00:22;100939.09;;;15.37;76.22
75740;BME280;64357;51.344;6.550;2023-07-22T00:02:48;100943.84;;;15.43;76.48
75740;BME280;64357;51.344;6.550;2023-07-22T00:05:13;100946.25;;;15.41;77.00
75740;BME280;64357;51.344;6.550;2023-07-22T00:07:39;100946.75;;;15.47;76.87
75740;BME280;64357;51.344;6.550;2023-07-22T00:10:06;100947.81;;;15.50;76.75
75740;BME280;64357;51.344;6.550;2023-07-22T00:12:34;100948.44;;;15.47;76.65
75740;BME280;64357;51.344;6.550;2023-07-22T00:14:59;100944.84;;;15.55;75.91
75740;BME280;64357;51.344;6.550;2023-07-22T00:17:25;100942.63;;;15.60;76.30
75740;BME280;64357;51.344;6.550;2023-07-22T00:19:55;100939.81;;;15.57;76.43
75740;BME280;64357;51.344;6.550;2023-07-22T00:22:23;100934.16;;;15.51;77.18
75740;BME280;64357;51.344;6.550;2023-07-22T00:24:48;100940.31;;;15.53;77.08
75740;BME280;64357;51.344;6.550;2023-07-22T00:27:19;100933.34;;;15.62;76.05
75740;BME280;64357;51.344;6.550;2023-07-22T00:29:48;100935.38;;;15.76;76.01
75740;BME280;64357;51.344;6.550;2023-07-22T00:32:16;100951.88;;;15.78;75.41
75740;BME280;64357;51.344;6.550;2023-07-22T00:34:41;100952.03;;;15.69;76.66
75740;BME280;64357;51.344;6.550;2023-07-22T00:37:07;100945.03;;;15.79;75.69
75740;BME280;64357;51.344;6.550;2023-07-22T00:39:34;100944.06;;;15.66;76.61
75740;BME280;64357;51.344;6.550;2023-07-22T00:42:00;100932.56;;;15.73;76.09
75740;BME280;64357;51.344;6.550;2023-07-22T00:44:25;100925.50;;;15.60;76.82
75740;BME280;64357;51.344;6.550;2023-07-22T00:46:53;100941.72;;;15.59;77.29
75740;BME280;64357;51.344;6.550;2023-07-22T00:49:20;100936.56;;;15.69;76.77
75740;BME280;64357;51.344;6.550;2023-07-22T00:51:49;100931.97;;;15.55;77.58
75740;BME280;64357;51.344;6.550;2023-07-22T00:54:14;100937.22;;;15.67;77.34
75740;BME280;64357;51.344;6.550;2023-07-22T00:56:40;100931.91;;;15.76;76.54
75740;BME280;64357;51.344;6.550;2023-07-22T00:59:07;100922.31;;;15.63;77.47
75740;BME280;64357;51.344;6.550;2023-07-22T01:01:36;100928.88;;;15.49;78.12
75740;BME280;64357;51.344;6.550;2023-07-22T01:04:02;100927.84;;;15.47;78.45
75740;BME280;64357;51.344;6.550;2023-07-22T01:06:29;100922.59;;;15.45;78.47
75740;BME280;64357;51.344;6.550;2023-07-22T01:08:57;100927.22;;;15.50;78.50
75740;BME280;64357;51.344;6.550;2023-07-22T01:11:23;100925.53;;;15.50;78.55
75740;BME280;64357;51.344;6.550;2023-07-22T01:13:49;100919.22;;;15.46;78.58
75740;BME280;64357;51.344;6.550;2023-07-22T01:16:17;100922.44;;;15.54;78.36
75740;BME280;64357;51.344;6.550;2023-07-22T01:18:43;100915.34;;;15.52;78.40
75740;BME280;64357;51.344;6.550;2023-07-22T01:21:12;100913.56;;;15.51;78.73
75740;BME280;64357;51.344;6.550;2023-07-22T01:23:38;100911.66;;;15.38;79.35
75740;BME280;64357;51.344;6.550;2023-07-22T01:26:06;100905.38;;;15.34;79.63
75740;BME280;64357;51.344;6.550;2023-07-22T01:28:36;100898.03;;;15.29;79.64
75740;BME280;64357;51.344;6.550;2023-07-22T01:31:02;100906.59;;;15.60;78.27
75740;BME280;64357;51.344;6.550;2023-07-22T01:33:27;100904.41;;;15.54;78.35
75740;BME280;64357;51.344;6.550;2023-07-22T01:35:55;100900.00;;;15.53;78.07
75740;BME280;64357;51.344;6.550;2023-07-22T01:38:20;100900.38;;;15.58;77.70
75740;BME280;64357;51.344;6.550;2023-07-22T01:40:46;100904.53;;;15.56;77.80
75740;BME280;64357;51.344;6.550;2023-07-22T01:43:14;100902.50;;;15.41;78.52
75740;BME280;64357;51.344;6.550;2023-07-22T01:45:41;100895.63;;;15.30;79.02
75740;BME280;64357;51.344;6.550;2023-07-22T01:48:10;100899.47;;;15.25;79.00
75740;BME280;64357;51.344;6.550;2023-07-22T01:50:36;100899.59;;;15.37;79.04
75740;BME280;64357;51.344;6.550;2023-07-22T01:53:01;100889.19;;;15.25;79.26
75740;BME280;64357;51.344;6.550;2023-07-22T01:55:26;100903.47;;;15.22;79.69
75740;BME280;64357;51.344;6.550;2023-07-22T01:57:53;100901.81;;;15.12;80.18
75740;BME280;64357;51.344;6.550;2023-07-22T02:00:18;100902.47;;;14.99;80.81
75740;BME280;64357;51.344;6.550;2023-07-22T02:02:46;100900.69;;;14.98;80.71
75740;BME280;64357;51.344;6.550;2023-07-22T02:05:11;100901.97;;;14.93;81.16
75740;BME280;64357;51.344;6.550;2023-07-22T02:07:37;100902.25;;;14.96;80.96
75740;BME280;64357;51.344;6.550;2023-07-22T02:10:03;100897.47;;;14.80;81.57
75740;BME280;64357;51.344;6.550;2023-07-22T02:12:31;100892.59;;;14.63;82.51
75740;BME280;64357;51.344;6.550;2023-07-22T02:14:59;100898.53;;;14.62;82.83
75740;BME280;64357;51.344;6.550;2023-07-22T02:17:27;100903.78;;;14.74;82.39
75740;BME280;64357;51.344;6.550;2023-07-22T02:19:55;100894.94;;;14.60;82.47
75740;BME280;64357;51.344;6.550;2023-07-22T02:22:25;100905.97;;;14.69;82.96
75740;BME280;64357;51.344;6.550;2023-07-22T02:24:53;100895.41;;;14.76;82.10
75740;BME280;64357;51.344;6.550;2023-07-22T02:27:24;100887.69;;;14.76;81.71
75740;BME280;64357;51.344;6.550;2023-07-22T02:29:49;100890.03;;;14.83;81.07
75740;BME280;64357;51.344;6.550;2023-07-22T02:32:14;100894.91;;;14.80;80.67
75740;BME280;64357;51.344;6.550;2023-07-22T02:34:40;100882.94;;;14.81;80.65
75740;BME280;64357;51.344;6.550;2023-07-22T02:37:05;100883.84;;;14.81;80.59
75740;BME280;64357;51.344;6.550;2023-07-22T02:39:33;100888.09;;;14.91;79.98
75740;BME280;64357;51.344;6.550;2023-07-22T02:41:58;100895.41;;;14.97;79.73
75740;BME280;64357;51.344;6.550;2023-07-22T02:44:24;100881.28;;;14.81;80.08
75740;BME280;64357;51.344;6.550;2023-07-22T02:46:49;100895.31;;;14.95;79.81
75740;BME280;64357;51.344;6.550;2023-07-22T02:49:14;100872.94;;;14.74;79.90
75740;BME280;64357;51.344;6.550;2023-07-22T02:52:05;100900.94;;;14.71;79.95
75740;BME280;64357;51.344;6.550;2023-07-22T02:54:37;100891.06;;;14.75;79.68
75740;BME280;64357;51.344;6.550;2023-07-22T02:57:02;100899.53;;;14.84;79.34
75740;BME280;64357;51.344;6.550;2023-07-22T02:59:32;100891.94;;;14.86;78.97
75740;BME280;64357;51.344;6.550;2023-07-22T03:01:58;100903.28;;;14.78;79.79
75740;BME280;64357;51.344;6.550;2023-07-22T03:04:23;100905.59;;;14.75;79.60
75740;BME280;64357;51.344;6.550;2023-07-22T03:06:49;100909.56;;;14.81;79.46
75740;BME280;64357;51.344;6.550;2023-07-22T03:09:14;100910.97;;;14.88;78.69
75740;BME280;64357;51.344;6.550;2023-07-22T03:11:39;100909.28;;;14.88;78.38
75740;BME280;64357;51.344;6.550;2023-07-22T03:14:05;100902.88;;;14.93;77.79
75740;BME280;64357;51.344;6.550;2023-07-22T03:16:33;100908.28;;;14.97;77.17
75740;BME280;64357;51.344;6.550;2023-07-22T03:19:03;100918.19;;;15.02;77.19
75740;BME280;64357;51.344;6.550;2023-07-22T03:21:33;100899.00;;;14.88;77.38
75740;BME280;64357;51.344;6.550;2023-07-22T03:23:58;100904.03;;;14.97;77.24
75740;BME280;64357;51.344;6.550;2023-07-22T03:26:24;100908.00;;;15.04;76.95
75740;BME280;64357;51.344;6.550;2023-07-22T03:28:50;100898.63;;;14.94;76.68
75740;BME280;64357;51.344;6.550;2023-07-22T03:31:15;100917.28;;;15.02;76.56
75740;BME280;64357;51.344;6.550;2023-07-22T03:33:40;100900.00;;;15.01;76.65
75740;BME280;64357;51.344;6.550;2023-07-22T03:36:13;100908.28;;;15.07;76.43
75740;BME280;64357;51.344;6.550;2023-07-22T03:38:38;100912.13;;;15.02;76.66
75740;BME280;64357;51.344;6.550;2023-07-22T03:41:03;100906.59;;;14.97;77.17
75740;BME280;64357;51.344;6.550;2023-07-22T03:43:32;100912.50;;;15.06;76.26
75740;BME280;64357;51.344;6.550;2023-07-22T03:45:57;100911.19;;;15.11;76.16
75740;BME280;64357;51.344;6.550;2023-07-22T03:48:22;100921.25;;;15.08;76.81
75740;BME280;64357;51.344;6.550;2023-07-22T03:50:48;100917.75;;;15.18;77.09
75740;BME280;64357;51.344;6.550;2023-07-22T03:53:13;100919.81;;;15.12;77.81
75740;BME280;64357;51.344;6.550;2023-07-22T03:55:39;100923.38;;;15.24;76.91
75740;BME280;64357;51.344;6.550;2023-07-22T03:58:04;100904.13;;;15.09;77.09
75740;BME280;64357;51.344;6.550;2023-07-22T04:00:29;100913.16;;;15.04;77.23
75740;BME280;64357;51.344;6.550;2023-07-22T04:02:57;100909.78;;;15.05;77.06
75740;BME280;64357;51.344;6.550;2023-07-22T04:05:22;100912.41;;;14.84;78.19
75740;BME280;64357;51.344;6.550;2023-07-22T04:07:48;100923.31;;;14.82;78.21
75740;BME280;64357;51.344;6.550;2023-07-22T04:10:15;100914.97;;;14.84;77.62
75740;BME280;64357;51.344;6.550;2023-07-22T04:12:41;100918.19;;;14.82;77.89
75740;BME280;64357;51.344;6.550;2023-07-22T04:15:09;100923.34;;;14.72;78.36
75740;BME280;64357;51.344;6.550;2023-07-22T04:17:34;100916.50;;;14.82;77.64
75740;BME280;64357;51.344;6.550;2023-07-22T04:19:59;100922.03;;;14.97;76.92
75740;BME280;64357;51.344;6.550;2023-07-22T04:22:25;100917.28;;;14.71;77.63
75740;BME280;64357;51.344;6.550;2023-07-22T04:24:50;100918.44;;;14.54;78.19
75740;BME280;64357;51.344;6.550;2023-07-22T04:27:18;100931.44;;;14.66;78.30
75740;BME280;64357;51.344;6.550;2023-07-22T04:29:46;100935.81;;;14.67;78.34
75740;BME280;64357;51.344;6.550;2023-07-22T04:32:11;100922.56;;;14.73;77.64
75740;BME280;64357;51.344;6.550;2023-07-22T04:34:37;100914.06;;;14.53;78.47
75740;BME280;64357;51.344;6.550;2023-07-22T04:37:02;100923.44;;;14.53;78.92
75740;BME280;64357;51.344;6.550;2023-07-22T04:39:29;100925.72;;;14.39;79.20
75740;BME280;64357;51.344;6.550;2023-07-22T04:41:56;100921.66;;;14.72;78.01
75740;BME280;64357;51.344;6.550;2023-07-22T04:44:21;100923.22;;;14.60;78.53
75740;BME280;64357;51.344;6.550;2023-07-22T04:46:47;100927.81;;;14.64;78.30
75740;BME280;64357;51.344;6.550;2023-07-22T04:49:12;100916.88;;;14.77;77.94
75740;BME280;64357;51.344;6.550;2023-07-22T04:51:38;100931.81;;;14.71;77.88
75740;BME280;64357;51.344;6.550;2023-07-22T04:54:03;100925.78;;;14.80;77.51
75740;BME280;64357;51.344;6.550;2023-07-22T04:56:29;100908.03;;;14.73;77.40
75740;BME280;64357;51.344;6.550;2023-07-22T04:58:54;100903.50;;;14.71;77.78
75740;BME280;64357;51.344;6.550;2023-07-22T05:01:22;100914.97;;;14.74;78.07
75740;BME280;64357;51.344;6.550;2023-07-22T05:03:47;100901.72;;;14.80;77.24
75740;BME280;64357;51.344;6.550;2023-07-22T05:06:15;100891.44;;;14.80;76.95
75740;BME280;64357;51.344;6.550;2023-07-22T05:08:40;100903.91;;;14.75;77.60
75740;BME280;64357;51.344;6.550;2023-07-22T05:11:06;100908.94;;;14.74;77.15
75740;BME280;64357;51.344;6.550;2023-07-22T05:13:34;100917.66;;;14.86;77.10
75740;BME280;64357;51.344;6.550;2023-07-22T05:15:59;100910.84;;;14.86;77.09
75740;BME280;64357;51.344;6.550;2023-07-22T05:18:27;100912.66;;;14.98;77.06
75740;BME280;64357;51.344;6.550;2023-07-22T05:20:52;100913.81;;;15.01;76.22
75740;BME280;64357;51.344;6.550;2023-07-22T05:23:20;100924.22;;;15.03;76.91
75740;BME280;64357;51.344;6.550;2023-07-22T05:25:54;100919.19;;;14.94;77.25
75740;BME280;64357;51.344;6.550;2023-07-22T05:28:20;100915.72;;;14.93;76.71
75740;BME280;64357;51.344;6.550;2023-07-22T05:30:45;100933.09;;;14.96;77.28
75740;BME280;64357;51.344;6.550;2023-07-22T05:33:11;100929.88;;;15.19;76.26
75740;BME280;64357;51.344;6.550;2023-07-22T05:35:36;100928.75;;;15.47;75.61
75740;BME280;64357;51.344;6.550;2023-07-22T05:38:01;100930.47;;;15.37;75.43
75740;BME280;64357;51.344;6.550;2023-07-22T05:40:32;100919.50;;;15.39;75.20
75740;BME280;64357;51.344;6.550;2023-07-22T05:42:57;100944.63;;;15.42;75.67
75740;BME280;64357;51.344;6.550;2023-07-22T05:45:25;100928.53;;;15.34;75.65
75740;BME280;64357;51.344;6.550;2023-07-22T05:47:52;100940.69;;;15.57;75.31
75740;BME280;64357;51.344;6.550;2023-07-22T05:50:20;100933.22;;;15.70;74.04
75740;BME280;64357;51.344;6.550;2023-07-22T05:52:45;100945.69;;;15.76;74.19
75740;BME280;64357;51.344;6.550;2023-07-22T05:55:11;100946.22;;;15.72;75.01
75740;BME280;64357;51.344;6.550;2023-07-22T05:57:39;100949.09;;;15.97;74.25
75740;BME280;64357;51.344;6.550;2023-07-22T06:00:05;100940.75;;;16.11;73.17
75740;BME280;64357;51.344;6.550;2023-07-22T06:02:30;100936.69;;;16.25;72.74
75740;BME280;64357;51.344;6.550;2023-07-22T06:04:58;100943.44;;;16.35;72.43
75740;BME280;64357;51.344;6.550;2023-07-22T06:07:25;100937.94;;;16.74;71.31
75740;BME280;64357;51.344;6.550;2023-07-22T06:09:51;100939.31;;;16.92;70.73
75740;BME280;64357;51.344;6.550;2023-07-22T06:12:19;100928.69;;;16.66;71.32
75740;BME280;64357;51.344;6.550;2023-07-22T06:14:44;100940.06;;;16.79;71.69
75740;BME280;64357;51.344;6.550;2023-07-22T06:17:09;100940.44;;;16.84;71.91
75740;BME280;64357;51.344;6.550;2023-07-22T06:19:37;100940.31;;;16.61;73.06
75740;BME280;64357;51.344;6.550;2023-07-22T06:22:02;100932.59;;;17.06;71.20
75740;BME280;64357;51.344;6.550;2023-07-22T06:24:28;100938.13;;;17.11;71.06
75740;BME280;64357;51.344;6.550;2023-07-22T06:26:54;100935.19;;;17.06;71.44
75740;BME280;64357;51.344;6.550;2023-07-22T06:29:19;100933.81;;;16.99;71.93
75740;BME280;64357;51.344;6.550;2023-07-22T06:31:44;100924.63;;;16.91;72.52
75740;BME280;64357;51.344;6.550;2023-07-22T06:34:10;100932.38;;;17.03;71.66
75740;BME280;64357;51.344;6.550;2023-07-22T06:36:37;100939.00;;;16.99;72.12
75740;BME280;64357;51.344;6.550;2023-07-22T06:39:05;100934.31;;;17.17;71.00
75740;BME280;64357;51.344;6.550;2023-07-22T06:41:30;100920.72;;;16.96;71.60
75740;BME280;64357;51.344;6.550;2023-07-22T06:43:55;100924.41;;;17.00;72.12
75740;BME280;64357;51.344;6.550;2023-07-22T06:46:21;100931.94;;;17.09;71.79
75740;BME280;64357;51.344;6.550;2023-07-22T06:48:47;100933.41;;;17.17;72.23
75740;BME280;64357;51.344;6.550;2023-07-22T06:51:12;100930.28;;;17.21;71.97
75740;BME280;64357;51.344;6.550;2023-07-22T06:53:38;100924.00;;;17.52;71.51
75740;BME280;64357;51.344;6.550;2023-07-22T06:56:03;100919.63;;;17.51;70.93
75740;BME280;64357;51.344;6.550;2023-07-22T06:58:29;100923.88;;;17.63;70.98
75740;BME280;64357;51.344;6.550;2023-07-22T07:00:55;100918.28;;;17.80;70.40
75740;BME280;64357;51.344;6.550;2023-07-22T07:03:21;100923.06;;;17.99;69.53
75740;BME280;64357;51.344;6.550;2023-07-22T07:05:54;100920.13;;;18.18;68.94
75740;BME280;64357;51.344;6.550;2023-07-22T07:08:22;100926.97;;;18.05;68.90
75740;BME280;64357;51.344;6.550;2023-07-22T07:10:50;100928.06;;;18.21;68.53
75740;BME280;64357;51.344;6.550;2023-07-22T07:13:22;100923.88;;;17.86;69.43
75740;BME280;64357;51.344;6.550;2023-07-22T07:16:25;100925.47;;;17.61;70.45
75740;BME280;64357;51.344;6.550;2023-07-22T07:18:53;100932.53;;;17.87;69.92
75740;BME280;64357;51.344;6.550;2023-07-22T07:21:22;100921.84;;;17.82;69.92
75740;BME280;64357;51.344;6.550;2023-07-22T07:26:19;100921.81;;;18.42;67.66
75740;BME280;64357;51.344;6.550;2023-07-22T07:28:45;100933.63;;;18.63;67.24
75740;BME280;64357;51.344;6.550;2023-07-22T07:31:11;100937.78;;;18.73;66.75
75740;BME280;64357;51.344;6.550;2023-07-22T07:33:50;100893.84;;;19.00;64.65
75740;BME280;64357;51.344;6.550;2023-07-22T07:36:19;100907.22;;;19.32;63.34
75740;BME280;64357;51.344;6.550;2023-07-22T07:38:46;100924.34;;;19.30;64.13
75740;BME280;64357;51.344;6.550;2023-07-22T07:41:12;100934.41;;;19.12;65.18
75740;BME280;64357;51.344;6.550;2023-07-22T07:43:40;100939.28;;;19.21;65.05
75740;BME280;64357;51.344;6.550;2023-07-22T07:48:42;100945.56;;;19.11;66.06
75740;BME280;64357;51.344;6.550;2023-07-22T07:51:08;100935.53;;;19.42;64.83
75740;BME280;64357;51.344;6.550;2023-07-22T07:53:33;100915.41;;;19.78;63.03
75740;BME280;64357;51.344;6.550;2023-07-22T07:55:58;100909.78;;;20.27;61.19
75740;BME280;64357;51.344;6.550;2023-07-22T07:58:24;100919.25;;;20.82;58.95
75740;BME280;64357;51.344;6.550;2023-07-22T08:00:52;100911.34;;;21.10;57.87
75740;BME280;64357;51.344;6.550;2023-07-22T08:03:18;100909.38;;;20.62;59.47
75740;BME280;64357;51.344;6.550;2023-07-22T08:05:49;100899.75;;;20.46;59.07
75740;BME280;64357;51.344;6.550;2023-07-22T08:08:33;100920.97;;;20.82;58.20
75740;BME280;64357;51.344;6.550;2023-07-22T08:13:27;100911.94;;;21.96;54.08
75740;BME280;64357;51.344;6.550;2023-07-22T08:15:55;100899.19;;;21.24;55.49
75740;BME280;64357;51.344;6.550;2023-07-22T08:18:20;100918.97;;;21.22;56.19
75740;BME280;64357;51.344;6.550;2023-07-22T08:20:46;100940.06;;;21.41;55.62
75740;BME280;64357;51.344;6.550;2023-07-22T08:23:15;100942.19;;;21.48;55.43
75740;BME280;64357;51.344;6.550;2023-07-22T08:25:43;100940.91;;;21.71;54.95
75740;BME280;64357;51.344;6.550;2023-07-22T08:28:08;100930.72;;;21.60;53.95
75740;BME280;64357;51.344;6.550;2023-07-22T08:30:57;100934.41;;;21.48;54.25
75740;BME280;64357;51.344;6.550;2023-07-22T08:33:51;100912.81;;;21.05;55.10
75740;BME280;64357;51.344;6.550;2023-07-22T08:36:17;100931.44;;;20.98;55.69
75740;BME280;64357;51.344;6.550;2023-07-22T08:38:42;100939.13;;;20.96;56.08
75740;BME280;64357;51.344;6.550;2023-07-22T08:41:14;100926.59;;;21.19;55.55
75740;BME280;64357;51.344;6.550;2023-07-22T08:43:54;100931.91;;;21.35;54.86
75740;BME280;64357;51.344;6.550;2023-07-22T08:46:26;100929.13;;;21.47;53.88
75740;BME280;64357;51.344;6.550;2023-07-22T08:49:16;100933.50;;;22.41;51.49
75740;BME280;64357;51.344;6.550;2023-07-22T08:51:43;100941.53;;;22.78;50.50
75740;BME280;64357;51.344;6.550;2023-07-22T08:54:10;100931.16;;;22.46;51.35
75740;BME280;64357;51.344;6.550;2023-07-22T08:56:48;100903.75;;;21.74;51.77
75740;BME280;64357;51.344;6.550;2023-07-22T08:59:19;100922.44;;;21.98;50.83
75740;BME280;64357;51.344;6.550;2023-07-22T09:01:46;100928.72;;;21.70;52.13
75740;BME280;64357;51.344;6.550;2023-07-22T09:04:16;100934.28;;;21.62;52.34
75740;BME280;64357;51.344;6.550;2023-07-22T09:06:43;100928.63;;;21.69;52.06
75740;BME280;64357;51.344;6.550;2023-07-22T09:09:21;100934.31;;;22.40;50.47
75740;BME280;64357;51.344;6.550;2023-07-22T09:11:55;100931.19;;;22.96;48.33
75740;BME280;64357;51.344;6.550;2023-07-22T09:14:25;100925.97;;;22.96;48.11
75740;BME280;64357;51.344;6.550;2023-07-22T09:19:33;100914.56;;;23.10;47.63
75740;BME280;64357;51.344;6.550;2023-07-22T09:22:01;100941.00;;;23.18;47.55
75740;BME280;64357;51.344;6.550;2023-07-22T09:24:42;100940.06;;;22.83;48.26
75740;BME280;64357;51.344;6.550;2023-07-22T09:27:09;100929.31;;;22.45;49.54
75740;BME280;64357;51.344;6.550;2023-07-22T09:29:37;100926.66;;;22.27;50.41
75740;BME280;64357;51.344;6.550;2023-07-22T09:32:09;100917.34;;;22.16;50.02
75740;BME280;64357;51.344;6.550;2023-07-22T09:34:35;100907.38;;;22.23;49.72
75740;BME280;64357;51.344;6.550;2023-07-22T09:37:08;100930.09;;;21.80;51.32
75740;BME280;64357;51.344;6.550;2023-07-22T09:39:46;100930.22;;;21.98;49.77
75740;BME280;64357;51.344;6.550;2023-07-22T09:42:24;100916.75;;;22.52;48.75
75740;BME280;64357;51.344;6.550;2023-07-22T09:44:54;100915.47;;;23.29;46.53
75740;BME280;64357;51.344;6.550;2023-07-22T09:47:22;100909.78;;;24.48;43.74
75740;BME280;64357;51.344;6.550;2023-07-22T09:49:49;100908.63;;;25.42;41.52
75740;BME280;64357;51.344;6.550;2023-07-22T09:52:26;100887.38;;;24.53;42.50
75740;BME280;64357;51.344;6.550;2023-07-22T09:54:52;100894.81;;;24.63;41.98
75740;BME280;64357;51.344;6.550;2023-07-22T09:57:24;100889.63;;;25.25;40.36
75740;BME280;64357;51.344;6.550;2023-07-22T10:00:13;100907.97;;;25.91;39.20
75740;BME280;64357;51.344;6.550;2023-07-22T10:02:43;100903.81;;;25.96;38.37
75740;BME280;64357;51.344;6.550;2023-07-22T10:05:16;100907.81;;;25.87;38.98
75740;BME280;64357;51.344;6.550;2023-07-22T10:07:56;100926.66;;;26.00;38.27
75740;BME280;64357;51.344;6.550;2023-07-22T10:10:32;100898.09;;;25.84;38.88
75740;BME280;64357;51.344;6.550;2023-07-22T10:12:58;100889.34;;;26.78;36.84
75740;BME280;64357;51.344;6.550;2023-07-22T10:15:34;100917.63;;;26.87;36.57
75740;BME280;64357;51.344;6.550;2023-07-22T10:18:00;100923.34;;;24.98;40.29
75740;BME280;64357;51.344;6.550;2023-07-22T10:20:27;100927.44;;;25.98;38.57
75740;BME280;64357;51.344;6.550;2023-07-22T10:22:56;100887.13;;;24.87;40.17
75740;BME280;64357;51.344;6.550;2023-07-22T10:25:25;100912.97;;;25.42;38.97
75740;BME280;64357;51.344;6.550;2023-07-22T10:27:52;100906.91;;;24.41;41.63
75740;BME280;64357;51.344;6.550;2023-07-22T10:30:18;100899.91;;;25.64;39.36
75740;BME280;64357;51.344;6.550;2023-07-22T10:35:17;100907.44;;;26.70;37.06
75740;BME280;64357;51.344;6.550;2023-07-22T10:37:46;100895.78;;;25.48;39.00
75740;BME280;64357;51.344;6.550;2023-07-22T10:40:30;100870.69;;;25.31;39.59
75740;BME280;64357;51.344;6.550;2023-07-22T10:43:27;100891.50;;;25.28;39.04
75740;BME280;64357;51.344;6.550;2023-07-22T10:46:30;100900.97;;;24.65;40.70
75740;BME280;64357;51.344;6.550;2023-07-22T10:49:44;100887.66;;;25.20;39.59
75740;BME280;64357;51.344;6.550;2023-07-22T10:52:15;100859.22;;;25.93;37.61
75740;BME280;64357;51.344;6.550;2023-07-22T10:54:59;100864.28;;;26.13;37.97
75740;BME280;64357;51.344;6.550;2023-07-22T10:57:25;100882.44;;;25.20;39.45
75740;BME280;64357;51.344;6.550;2023-07-22T10:59:55;100887.94;;;26.88;37.65
75740;BME280;64357;51.344;6.550;2023-07-22T11:02:23;100881.31;;;25.79;38.95
75740;BME280;64357;51.344;6.550;2023-07-22T11:04:48;100884.84;;;25.79;38.48
75740;BME280;64357;51.344;6.550;2023-07-22T11:07:14;100850.16;;;24.98;40.13
75740;BME280;64357;51.344;6.550;2023-07-22T11:09:40;100875.91;;;24.89;40.80
75740;BME280;64357;51.344;6.550;2023-07-22T11:12:16;100862.53;;;24.62;40.70
75740;BME280;64357;51.344;6.550;2023-07-22T11:14:54;100873.84;;;24.23;41.52
75740;BME280;64357;51.344;6.550;2023-07-22T11:17:29;100871.66;;;24.51;41.19
75740;BME280;64357;51.344;6.550;2023-07-22T11:23:37;100873.06;;;24.25;41.91
75740;BME280;64357;51.344;6.550;2023-07-22T11:26:27;100855.00;;;24.49;39.34
75740;BME280;64357;51.344;6.550;2023-07-22T11:29:03;100880.84;;;24.43;37.61
75740;BME280;64357;51.344;6.550;2023-07-22T11:32:04;100868.63;;;24.42;37.78
75740;BME280;64357;51.344;6.550;2023-07-22T11:34:43;100837.72;;;24.72;37.62
75740;BME280;64357;51.344;6.550;2023-07-22T11:37:18;100890.06;;;23.25;38.58
75740;BME280;64357;51.344;6.550;2023-07-22T11:40:34;100842.03;;;24.12;37.96
75740;BME280;64357;51.344;6.550;2023-07-22T11:43:14;100867.78;;;23.49;39.71
75740;BME280;64357;51.344;6.550;2023-07-22T11:46:00;100869.56;;;24.05;38.88
75740;BME280;64357;51.344;6.550;2023-07-22T11:48:25;100862.25;;;25.38;36.72
75740;BME280;64357;51.344;6.550;2023-07-22T11:50:58;100833.81;;;25.68;36.71
75740;BME280;64357;51.344;6.550;2023-07-22T11:53:31;100831.94;;;25.43;37.39
75740;BME280;64357;51.344;6.550;2023-07-22T11:55:57;100846.69;;;25.41;37.41
75740;BME280;64357;51.344;6.550;2023-07-22T11:58:31;100844.72;;;24.94;38.45
75740;BME280;64357;51.344;6.550;2023-07-22T12:01:16;100835.72;;;25.07;38.67
75740;BME280;64357;51.344;6.550;2023-07-22T12:03:55;100838.88;;;25.20;38.31
75740;BME280;64357;51.344;6.550;2023-07-22T12:06:25;100816.56;;;25.51;37.98
75740;BME280;64357;51.344;6.550;2023-07-22T12:09:36;100803.34;;;25.05;39.09
75740;BME280;64357;51.344;6.550;2023-07-22T12:12:23;100793.13;;;25.32;38.80
75740;BME280;64357;51.344;6.550;2023-07-22T12:15:26;100821.84;;;26.21;36.25
75740;BME280;64357;51.344;6.550;2023-07-22T12:18:14;100818.69;;;26.31;36.46
75740;BME280;64357;51.344;6.550;2023-07-22T12:20:42;100786.72;;;25.68;37.00
75740;BME280;64357;51.344;6.550;2023-07-22T12:23:23;100819.81;;;26.14;36.04
75740;BME280;64357;51.344;6.550;2023-07-22T12:25:56;100797.53;;;26.49;35.27
75740;BME280;64357;51.344;6.550;2023-07-22T12:28:27;100796.53;;;25.08;37.59
75740;BME280;64357;51.344;6.550;2023-07-22T12:31:15;100810.19;;;25.44;37.12
75740;BME280;64357;51.344;6.550;2023-07-22T12:33:51;100804.31;;;24.86;38.14
75740;BME280;64357;51.344;6.550;2023-07-22T12:36:29;100778.47;;;23.92;38.17
75740;BME280;64357;51.344;6.550;2023-07-22T12:39:00;100814.53;;;25.21;36.83
75740;BME280;64357;51.344;6.550;2023-07-22T12:41:30;100824.50;;;25.75;36.25
75740;BME280;64357;51.344;6.550;2023-07-22T12:44:01;100797.03;;;25.88;35.80
75740;BME280;64357;51.344;6.550;2023-07-22T12:46:36;100795.97;;;25.60;36.13
75740;BME280;64357;51.344;6.550;2023-07-22T12:49:07;100774.81;;;24.67;37.37
75740;BME280;64357;51.344;6.550;2023-07-22T12:51:33;100801.97;;;24.92;37.46
75740;BME280;64357;51.344;6.550;2023-07-22T12:53:58;100822.34;;;24.80;37.78
75740;BME280;64357;51.344;6.550;2023-07-22T12:56:23;100793.22;;;24.30;39.21
75740;BME280;64357;51.344;6.550;2023-07-22T12:58:53;100793.19;;;25.11;37.66
75740;BME280;64357;51.344;6.550;2023-07-22T13:01:22;100785.81;;;25.23;36.88
75740;BME280;64357;51.344;6.550;2023-07-22T13:03:50;100795.75;;;25.32;36.81
75740;BME280;64357;51.344;6.550;2023-07-22T13:06:15;100807.22;;;24.92;37.36
75740;BME280;64357;51.344;6.550;2023-07-22T13:08:40;100793.44;;;25.17;36.97
75740;BME280;64357;51.344;6.550;2023-07-22T13:11:06;100803.53;;;25.52;36.22
75740;BME280;64357;51.344;6.550;2023-07-22T13:13:31;100795.78;;;25.11;37.86
75740;BME280;64357;51.344;6.550;2023-07-22T13:15:56;100755.19;;;25.20;36.72
75740;BME280;64357;51.344;6.550;2023-07-22T13:18:24;100767.81;;;25.31;36.64